Time;durP1;ratioP1;P1;durP2;ratioP2;P2;SDS_P1;SDS_P2;PMS_P1;PMS_P2;Temp;Humidity;BMP_temperature;BMP_pressure;BME280_temperature;BME280_humidity;BME280_pressure;Samples;Min_cycle;Max_cycle;Signal;HPM_P1;HPM_P2
2022/10/03 00:00:03;;;;;;;16.93;5.87;;;;;;;;;;5053368;28;20402;-42
2022/10/03 00:02:56;;;;;;;13.60;6.53;;;;;;;;;;5044993;28;20440;-42
2022/10/03 00:05:41;;;;;;;13.07;5.23;;;;;;;;;;5050886;28;20408;-42
2022/10/03 00:08:33;;;;;;;9.23;5.60;;;;;;;;;;5033174;28;20517;-45
2022/10/03 00:11:08;;;;;;;21.53;6.67;;;;;;;;;;5024734;28;20413;-46
2022/10/03 00:13:52;;;;;;;9.40;4.17;;;;;;;;;;5033115;28;20453;-42
2022/10/03 00:16:22;;;;;;;13.73;5.47;;;;;;;;;;5032869;28;20426;-42
2022/10/03 00:18:54;;;;;;;16.70;5.50;;;;;;;;;;5032813;28;20422;-45
2022/10/03 00:21:19;;;;;;;8.80;5.20;;;;;;;;;;5033309;28;20433;-42
2022/10/03 00:24:24;;;;;;;10.37;5.83;;;;;;;;;;5032978;28;20429;-43
2022/10/03 00:26:59;;;;;;;9.23;5.20;;;;;;;;;;5010546;28;20411;-42
2022/10/03 00:29:28;;;;;;;18.20;5.57;;;;;;;;;;5010511;28;20410;-42
2022/10/03 00:31:54;;;;;;;6.73;4.37;;;;;;;;;;5023076;28;20464;-42
2022/10/03 00:34:38;;;;;;;16.90;5.60;;;;;;;;;;5032821;28;20394;-42
2022/10/03 00:37:13;;;;;;;13.93;5.77;;;;;;;;;;5032683;28;20505;-42
2022/10/03 00:39:56;;;;;;;12.57;5.70;;;;;;;;;;5031046;28;20764;-44
2022/10/03 00:42:48;;;;;;;16.90;5.77;;;;;;;;;;5033342;28;20762;-42
2022/10/03 00:45:27;;;;;;;21.03;6.27;;;;;;;;;;5030770;28;20402;-42
2022/10/03 00:47:53;;;;;;;16.33;5.93;;;;;;;;;;5032412;28;20422;-42
2022/10/03 00:50:19;;;;;;;11.17;5.70;;;;;;;;;;5032524;28;20410;-43
2022/10/03 00:52:55;;;;;;;11.93;5.70;;;;;;;;;;5032253;28;20457;-43
2022/10/03 00:55:21;;;;;;;31.20;7.70;;;;;;;;;;5034727;28;20414;-42
2022/10/03 00:58:06;;;;;;;23.50;6.50;;;;;;;;;;5030181;28;20441;-44
2022/10/03 01:00:33;;;;;;;19.23;5.67;;;;;;;;;;5030119;28;20406;-41
2022/10/03 01:03:10;;;;;;;16.13;5.83;;;;;;;;;;5030600;28;20414;-43
2022/10/03 01:05:54;;;;;;;9.23;5.63;;;;;;;;;;5030113;28;20488;-43
2022/10/03 01:08:26;;;;;;;16.50;6.13;;;;;;;;;;5030922;28;20421;-43
2022/10/03 01:11:10;;;;;;;14.57;5.50;;;;;;;;;;5031431;28;20410;-45
2022/10/03 01:13:47;;;;;;;16.30;7.37;;;;;;;;;;5031934;28;20579;-42
2022/10/03 01:16:20;;;;;;;12.00;5.90;;;;;;;;;;5031952;28;20406;-42
2022/10/03 01:18:49;;;;;;;7.83;5.97;;;;;;;;;;5032354;28;20422;-46
2022/10/03 01:21:18;;;;;;;21.70;6.90;;;;;;;;;;5032297;28;20428;-42
2022/10/03 01:23:57;;;;;;;20.83;6.33;;;;;;;;;;5031911;28;20410;-41
2022/10/03 01:26:43;;;;;;;11.90;6.10;;;;;;;;;;5031635;28;20406;-44
2022/10/03 01:32:04;;;;;;;24.13;6.60;;;;;;;;;;5031985;28;20910;-44
2022/10/03 01:34:44;;;;;;;26.87;7.00;;;;;;;;;;5031695;28;20449;-43
2022/10/03 01:37:14;;;;;;;17.53;7.80;;;;;;;;;;5031541;28;20422;-43
2022/10/03 01:39:49;;;;;;;11.07;5.80;;;;;;;;;;5031666;28;20409;-44
2022/10/03 01:42:16;;;;;;;15.37;6.33;;;;;;;;;;5031929;28;20405;-43
2022/10/03 01:45:01;;;;;;;14.77;5.97;;;;;;;;;;5031231;28;20406;-43
2022/10/03 01:47:30;;;;;;;29.77;7.47;;;;;;;;;;5031746;28;20429;-43
2022/10/03 01:49:56;;;;;;;16.40;6.50;;;;;;;;;;5031287;28;20398;-42
2022/10/03 01:52:25;;;;;;;16.43;6.67;;;;;;;;;;5031627;28;20502;-42
2022/10/03 01:54:57;;;;;;;19.93;7.07;;;;;;;;;;5031106;28;20413;-45
2022/10/03 01:57:37;;;;;;;12.97;7.37;;;;;;;;;;5031690;28;20427;-42
2022/10/03 02:00:05;;;;;;;18.47;6.93;;;;;;;;;;5031087;28;20897;-42
2022/10/03 02:02:37;;;;;;;18.37;5.53;;;;;;;;;;5031538;28;20428;-42
2022/10/03 02:05:08;;;;;;;13.57;5.80;;;;;;;;;;5031016;28;21009;-42
2022/10/03 02:07:53;;;;;;;18.73;6.47;;;;;;;;;;5031542;28;20881;-42
2022/10/03 02:10:24;;;;;;;14.27;7.27;;;;;;;;;;5031221;28;20831;-42
2022/10/03 02:13:04;;;;;;;13.13;6.30;;;;;;;;;;5032312;28;20460;-42
2022/10/03 02:15:43;;;;;;;10.90;6.00;;;;;;;;;;5035055;28;20417;-42
2022/10/03 02:18:12;;;;;;;14.80;6.53;;;;;;;;;;5035365;28;20418;-43
2022/10/03 02:20:57;;;;;;;14.13;6.40;;;;;;;;;;5035047;28;20413;-43
2022/10/03 02:23:36;;;;;;;12.13;6.10;;;;;;;;;;5035296;28;20406;-41
2022/10/03 02:26:08;;;;;;;13.20;6.17;;;;;;;;;;5035469;28;20397;-43
2022/10/03 02:28:38;;;;;;;18.33;6.50;;;;;;;;;;5035249;28;20441;-42
2022/10/03 02:31:08;;;;;;;13.40;6.77;;;;;;;;;;5034945;28;20394;-43
2022/10/03 02:33:44;;;;;;;14.87;6.50;;;;;;;;;;5034887;28;20532;-42
2022/10/03 02:36:10;;;;;;;18.40;6.40;;;;;;;;;;5034936;28;20413;-42
2022/10/03 02:38:58;;;;;;;10.30;7.10;;;;;;;;;;5035057;28;20415;-42
2022/10/03 02:41:31;;;;;;;17.07;6.70;;;;;;;;;;5035015;28;20487;-43
2022/10/03 02:44:20;;;;;;;21.90;7.00;;;;;;;;;;5034743;28;20886;-42
2022/10/03 02:47:05;;;;;;;16.80;6.80;;;;;;;;;;5034751;28;20406;-43
2022/10/03 02:49:32;;;;;;;12.97;7.07;;;;;;;;;;5034759;28;20890;-44
2022/10/03 02:51:58;;;;;;;17.57;7.50;;;;;;;;;;5034816;28;20406;-42
2022/10/03 02:54:24;;;;;;;19.77;7.57;;;;;;;;;;5034472;28;20459;-43
2022/10/03 02:57:17;;;;;;;13.57;7.00;;;;;;;;;;5034347;28;20398;-44
2022/10/03 03:00:03;;;;;;;18.83;6.90;;;;;;;;;;5034415;28;20412;-42
2022/10/03 03:02:47;;;;;;;24.63;7.70;;;;;;;;;;5034711;28;20801;-43
2022/10/03 03:05:15;;;;;;;11.43;6.37;;;;;;;;;;5034012;28;20412;-45
2022/10/03 03:08:02;;;;;;;18.50;7.90;;;;;;;;;;5034534;28;20944;-42
2022/10/03 03:10:28;;;;;;;15.00;6.67;;;;;;;;;;5034197;28;20406;-42
2022/10/03 03:12:57;;;;;;;25.07;9.30;;;;;;;;;;5034491;28;20542;-42
2022/10/03 03:15:43;;;;;;;14.87;7.37;;;;;;;;;;5033853;28;21182;-42
2022/10/03 03:18:17;;;;;;;22.23;7.50;;;;;;;;;;5034345;28;20462;-41
2022/10/03 03:20:56;;;;;;;21.13;7.30;;;;;;;;;;5034016;28;20409;-42
2022/10/03 03:23:34;;;;;;;15.47;7.67;;;;;;;;;;5033588;28;20398;-46
2022/10/03 03:26:14;;;;;;;17.27;8.30;;;;;;;;;;5033978;28;20468;-42
2022/10/03 03:28:52;;;;;;;15.80;6.77;;;;;;;;;;5034200;28;20432;-42
2022/10/03 03:31:28;;;;;;;13.93;8.03;;;;;;;;;;5034102;28;20401;-42
2022/10/03 03:34:14;;;;;;;16.73;7.47;;;;;;;;;;5033708;28;20453;-42
2022/10/03 03:36:47;;;;;;;17.97;7.00;;;;;;;;;;5033688;28;20410;-42
2022/10/03 03:39:35;;;;;;;16.63;7.10;;;;;;;;;;5033825;28;20405;-44
2022/10/03 03:42:17;;;;;;;15.43;6.83;;;;;;;;;;5033733;28;20456;-42
2022/10/03 03:44:43;;;;;;;15.70;7.47;;;;;;;;;;5033511;28;20406;-42
2022/10/03 03:47:28;;;;;;;12.90;8.03;;;;;;;;;;5033840;28;20415;-42
2022/10/03 03:50:00;;;;;;;21.80;7.60;;;;;;;;;;5033564;28;20744;-42
2022/10/03 03:52:26;;;;;;;20.37;6.97;;;;;;;;;;5033612;28;20511;-42
2022/10/03 03:55:07;;;;;;;17.83;6.87;;;;;;;;;;5032954;28;20416;-42
2022/10/03 03:57:47;;;;;;;14.97;7.70;;;;;;;;;;5033318;28;20441;-44
2022/10/03 04:00:15;;;;;;;21.60;7.20;;;;;;;;;;5034300;28;20448;-42
2022/10/03 04:02:51;;;;;;;16.40;8.30;;;;;;;;;;5033283;28;20476;-44
2022/10/03 04:05:35;;;;;;;14.07;7.63;;;;;;;;;;5032785;28;20410;-42
2022/10/03 04:08:12;;;;;;;17.37;8.00;;;;;;;;;;5033393;28;20481;-42
2022/10/03 04:10:52;;;;;;;14.20;7.80;;;;;;;;;;5033419;28;20416;-45
2022/10/03 04:13:24;;;;;;;17.27;8.50;;;;;;;;;;5033337;28;20484;-42
2022/10/03 04:15:52;;;;;;;19.20;7.90;;;;;;;;;;5033208;28;20754;-41
2022/10/03 04:21:26;;;;;;;14.30;7.27;;;;;;;;;;5033139;28;20405;-42
2022/10/03 04:23:52;;;;;;;22.27;7.27;;;;;;;;;;5032910;28;20410;-42
2022/10/03 04:26:18;;;;;;;15.60;7.80;;;;;;;;;;5032804;28;20780;-42
2022/10/03 04:28:50;;;;;;;25.13;8.30;;;;;;;;;;5032983;28;20426;-44
2022/10/03 04:31:37;;;;;;;18.00;7.67;;;;;;;;;;5032928;28;20890;-42
2022/10/03 04:34:24;;;;;;;18.80;7.77;;;;;;;;;;5032895;28;20743;-42
2022/10/03 04:37:05;;;;;;;16.90;8.17;;;;;;;;;;5031085;28;20695;-42
2022/10/03 04:39:31;;;;;;;19.23;7.77;;;;;;;;;;5032652;28;20399;-42
2022/10/03 04:42:03;;;;;;;12.20;7.20;;;;;;;;;;5032680;28;20462;-42
2022/10/03 04:44:42;;;;;;;20.03;8.17;;;;;;;;;;5032686;28;20404;-43
2022/10/03 04:47:16;;;;;;;14.87;7.70;;;;;;;;;;5032974;28;20432;-42
2022/10/03 04:50:05;;;;;;;21.27;8.30;;;;;;;;;;5032665;28;20830;-42
2022/10/03 04:52:39;;;;;;;23.33;8.37;;;;;;;;;;5031867;28;20457;-44
2022/10/03 04:55:27;;;;;;;15.67;9.30;;;;;;;;;;5031862;28;20893;-45
2022/10/03 04:58:00;;;;;;;14.60;8.40;;;;;;;;;;5032283;28;20432;-42
2022/10/03 05:00:32;;;;;;;21.27;10.50;;;;;;;;;;5032402;28;20398;-42
2022/10/03 05:03:00;;;;;;;19.20;8.50;;;;;;;;;;5032171;28;20433;-42
2022/10/03 05:05:39;;;;;;;21.00;8.90;;;;;;;;;;5031812;28;20420;-42
2022/10/03 05:08:05;;;;;;;24.30;10.57;;;;;;;;;;5032326;28;20448;-43
2022/10/03 05:10:46;;;;;;;18.80;8.40;;;;;;;;;;5032181;28;20407;-43
2022/10/03 05:13:19;;;;;;;21.50;9.13;;;;;;;;;;5032145;28;20448;-42
2022/10/03 05:16:05;;;;;;;15.27;8.93;;;;;;;;;;5031717;28;20407;-45
2022/10/03 05:18:37;;;;;;;17.13;8.33;;;;;;;;;;5032061;28;20420;-42
2022/10/03 05:21:14;;;;;;;25.83;9.33;;;;;;;;;;5032009;28;20875;-42
2022/10/03 05:23:41;;;;;;;24.63;8.53;;;;;;;;;;5031900;28;20426;-42
2022/10/03 05:26:07;;;;;;;20.97;9.10;;;;;;;;;;5032176;28;20413;-42
2022/10/03 05:29:00;;;;;;;25.50;9.90;;;;;;;;;;5032399;28;20780;-42
2022/10/03 05:31:35;;;;;;;25.80;8.43;;;;;;;;;;5030999;28;20425;-42
2022/10/03 05:34:03;;;;;;;20.63;9.20;;;;;;;;;;5031560;28;20507;-44
2022/10/03 05:36:53;;;;;;;18.47;9.00;;;;;;;;;;5031540;28;20406;-42
2022/10/03 05:39:26;;;;;;;25.47;10.23;;;;;;;;;;5031880;28;20457;-42
2022/10/03 05:41:53;;;;;;;21.93;8.80;;;;;;;;;;5031970;28;20945;-42
2022/10/03 05:44:26;;;;;;;20.47;9.30;;;;;;;;;;5031496;28;20420;-43
2022/10/03 05:46:52;;;;;;;21.73;9.00;;;;;;;;;;5031218;28;20410;-42
2022/10/03 05:49:22;;;;;;;26.50;10.60;;;;;;;;;;5031388;28;20431;-43
2022/10/03 05:51:48;;;;;;;15.80;7.97;;;;;;;;;;5031768;28;20481;-44
2022/10/03 05:54:17;;;;;;;11.83;7.77;;;;;;;;;;5031282;28;20537;-45
2022/10/03 05:57:06;;;;;;;15.60;8.40;;;;;;;;;;5031252;28;20890;-42
2022/10/03 05:59:51;;;;;;;19.87;9.03;;;;;;;;;;5031441;28;20430;-44
2022/10/03 06:02:33;;;;;;;17.87;8.97;;;;;;;;;;5031519;28;20420;-42
2022/10/03 06:05:02;;;;;;;22.73;11.20;;;;;;;;;;5030903;28;20413;-44
2022/10/03 06:07:37;;;;;;;21.37;9.70;;;;;;;;;;5031624;28;20497;-42
2022/10/03 06:10:06;;;;;;;20.73;8.67;;;;;;;;;;5031186;28;20390;-43
2022/10/03 06:12:46;;;;;;;19.43;8.70;;;;;;;;;;5031764;28;20464;-42
2022/10/03 06:15:16;;;;;;;14.23;8.53;;;;;;;;;;5030703;28;20406;-43
2022/10/03 06:17:54;;;;;;;14.13;8.80;;;;;;;;;;5031427;28;20421;-42
2022/10/03 06:20:37;;;;;;;25.60;9.57;;;;;;;;;;5031855;28;20509;-42
2022/10/03 06:23:32;;;;;;;28.93;8.83;;;;;;;;;;5040329;28;20413;-44
2022/10/03 06:26:04;;;;;;;16.43;9.20;;;;;;;;;;5031134;28;20395;-42
2022/10/03 06:28:30;;;;;;;28.67;9.70;;;;;;;;;;5031277;28;20419;-42
2022/10/03 06:31:04;;;;;;;21.50;9.07;;;;;;;;;;5031124;28;20410;-43
2022/10/03 06:33:39;;;;;;;14.93;10.40;;;;;;;;;;5031200;28;20549;-42
2022/10/03 06:36:08;;;;;;;20.30;7.27;;;;;;;;;;5030887;28;20404;-44
2022/10/03 06:38:53;;;;;;;24.63;10.77;;;;;;;;;;5031247;28;20479;-43
2022/10/03 06:41:31;;;;;;;18.10;8.10;;;;;;;;;;5031356;28;20444;-44
2022/10/03 06:44:21;;;;;;;17.30;9.27;;;;;;;;;;5030940;28;20398;-42
2022/10/03 06:46:58;;;;;;;19.13;9.97;;;;;;;;;;5030340;28;20409;-42
2022/10/03 06:49:36;;;;;;;15.33;8.30;;;;;;;;;;5030869;28;20393;-43
2022/10/03 06:52:28;;;;;;;16.37;9.00;;;;;;;;;;5030978;28;20567;-42
2022/10/03 06:54:57;;;;;;;19.20;8.97;;;;;;;;;;5030316;28;20442;-42
2022/10/03 06:57:42;;;;;;;16.77;9.37;;;;;;;;;;5031027;28;20418;-42
2022/10/03 07:00:20;;;;;;;20.00;9.47;;;;;;;;;;5033391;28;20399;-43
2022/10/03 07:03:01;;;;;;;17.40;9.63;;;;;;;;;;5034560;28;20876;-42
2022/10/03 07:05:46;;;;;;;15.77;8.90;;;;;;;;;;5033897;28;20402;-42
2022/10/03 07:08:23;;;;;;;23.47;10.30;;;;;;;;;;5034502;28;20481;-43
2022/10/03 07:10:52;;;;;;;18.27;9.33;;;;;;;;;;5034579;28;20391;-42
2022/10/03 07:13:21;;;;;;;19.87;9.43;;;;;;;;;;5034898;28;20461;-42
2022/10/03 07:15:52;;;;;;;19.77;9.60;;;;;;;;;;5033564;28;20459;-43
2022/10/03 07:18:36;;;;;;;17.80;9.63;;;;;;;;;;5034479;28;20418;-42
2022/10/03 07:21:21;;;;;;;17.90;8.50;;;;;;;;;;5034068;28;20401;-42
2022/10/03 07:24:02;;;;;;;17.13;8.60;;;;;;;;;;5034374;28;20402;-46
2022/10/03 07:26:56;;;;;;;15.23;7.60;;;;;;;;;;5033727;28;20449;-42
2022/10/03 07:29:37;;;;;;;19.73;8.60;;;;;;;;;;5033891;28;20457;-41
2022/10/03 07:32:03;;;;;;;19.13;7.73;;;;;;;;;;5034132;28;20466;-42
2022/10/03 07:34:38;;;;;;;11.63;8.40;;;;;;;;;;5033780;28;20542;-42
2022/10/03 07:40:05;;;;;;;16.10;8.00;;;;;;;;;;5033583;28;20941;-45
2022/10/03 07:42:35;;;;;;;18.43;8.20;;;;;;;;;;5034143;28;20412;-44
2022/10/03 07:45:01;;;;;;;17.80;8.23;;;;;;;;;;5033190;28;20422;-42
2022/10/03 07:47:51;;;;;;;13.57;7.63;;;;;;;;;;5033826;28;20923;-42
2022/10/03 07:50:46;;;;;;;16.00;8.90;;;;;;;;;;5033539;28;20792;-45
2022/10/03 07:53:42;;;;;;;27.60;8.70;;;;;;;;;;5039270;28;20470;-42
2022/10/03 07:56:15;;;;;;;13.67;7.10;;;;;;;;;;5053088;28;20890;-43
2022/10/03 07:58:50;;;;;;;14.10;7.37;;;;;;;;;;5053343;28;20431;-42
2022/10/03 08:01:22;;;;;;;12.43;7.70;;;;;;;;;;5051227;28;20402;-42
2022/10/03 08:04:00;;;;;;;26.63;8.20;;;;;;;;;;5043178;28;20439;-42
2022/10/03 08:06:30;;;;;;;16.57;7.33;;;;;;;;;;5052872;28;20429;-42
2022/10/03 08:09:02;;;;;;;19.20;7.73;;;;;;;;;;5052938;28;20423;-43
2022/10/03 08:11:34;;;;;;;16.70;7.50;;;;;;;;;;5052209;28;20493;-42
2022/10/03 08:14:00;;;;;;;20.20;8.40;;;;;;;;;;5053171;28;20491;-42
2022/10/03 08:16:45;;;;;;;18.90;7.60;;;;;;;;;;5052709;28;20775;-41
2022/10/03 08:19:17;;;;;;;13.00;6.90;;;;;;;;;;5052944;28;20924;-42
2022/10/03 08:22:02;;;;;;;10.67;6.60;;;;;;;;;;5053259;28;20400;-43
2022/10/03 08:24:43;;;;;;;18.73;7.00;;;;;;;;;;5052913;28;20454;-42
2022/10/03 08:27:22;;;;;;;10.97;7.43;;;;;;;;;;5052326;28;21006;-42
2022/10/03 08:29:51;;;;;;;15.97;8.20;;;;;;;;;;5052511;28;20411;-42
2022/10/03 08:32:37;;;;;;;17.27;7.40;;;;;;;;;;5052919;28;20502;-42
2022/10/03 08:35:12;;;;;;;18.97;7.63;;;;;;;;;;5052316;28;20404;-42
2022/10/03 08:37:38;;;;;;;12.73;6.97;;;;;;;;;;5052606;28;20913;-42
2022/10/03 08:40:23;;;;;;;28.20;7.53;;;;;;;;;;5052521;28;20771;-42
2022/10/03 08:43:04;;;;;;;14.83;7.50;;;;;;;;;;5052703;28;20395;-45
2022/10/03 08:45:50;;;;;;;22.70;7.70;;;;;;;;;;5051866;28;20765;-42
2022/10/03 08:48:16;;;;;;;24.03;8.27;;;;;;;;;;5052541;28;20509;-42
2022/10/03 08:51:09;;;;;;;17.83;5.77;;;;;;;;;;5052411;28;20852;-42
2022/10/03 08:53:38;;;;;;;16.70;6.43;;;;;;;;;;5044238;28;20467;-42
2022/10/03 08:56:31;;;;;;;13.80;5.10;;;;;;;;;;5052027;28;20378;-44
2022/10/03 08:58:57;;;;;;;15.70;6.20;;;;;;;;;;5043458;28;20486;-43
2022/10/03 09:01:46;;;;;;;8.77;4.57;;;;;;;;;;5052395;28;20495;-43
2022/10/03 09:04:21;;;;;;;16.00;4.70;;;;;;;;;;5049248;28;20905;-43
2022/10/03 09:06:50;;;;;;;16.67;5.90;;;;;;;;;;5051772;28;20415;-45
2022/10/03 09:09:48;;;;;;;6.40;4.40;;;;;;;;;;5052006;28;20396;-43
2022/10/03 09:12:30;;;;;;;14.63;4.73;;;;;;;;;;5052191;28;20763;-43
2022/10/03 09:15:10;;;;;;;9.53;4.00;;;;;;;;;;5051750;28;20398;-43
2022/10/03 09:17:48;;;;;;;7.70;3.90;;;;;;;;;;5051678;28;20786;-45
2022/10/03 09:20:15;;;;;;;21.67;5.03;;;;;;;;;;5051872;28;20394;-43
2022/10/03 09:23:07;;;;;;;7.17;3.67;;;;;;;;;;5051601;28;20492;-43
2022/10/03 09:25:36;;;;;;;8.30;4.33;;;;;;;;;;5050244;28;20785;-42
2022/10/03 09:28:17;;;;;;;8.30;4.13;;;;;;;;;;5051217;28;20514;-46
2022/10/03 09:31:02;;;;;;;12.87;4.90;;;;;;;;;;5051799;28;20484;-43
2022/10/03 09:33:40;;;;;;;13.40;3.73;;;;;;;;;;5051814;28;20431;-45
2022/10/03 09:36:17;;;;;;;9.60;4.20;;;;;;;;;;5050570;28;20884;-45
2022/10/03 09:39:01;;;;;;;10.93;3.80;;;;;;;;;;5050611;28;20414;-45
2022/10/03 09:41:42;;;;;;;8.10;4.10;;;;;;;;;;5051866;28;20371;-45
2022/10/03 09:44:27;;;;;;;8.80;4.17;;;;;;;;;;5051335;28;20427;-45
2022/10/03 09:49:46;;;;;;;9.17;4.13;;;;;;;;;;5051601;28;20443;-44
2022/10/03 09:52:38;;;;;;;17.20;5.17;;;;;;;;;;5051697;28;20955;-45
2022/10/03 09:55:11;;;;;;;9.23;3.57;;;;;;;;;;5050936;28;20403;-45
2022/10/03 09:57:48;;;;;;;11.03;4.03;;;;;;;;;;5051364;28;20512;-45
2022/10/03 10:00:26;;;;;;;9.40;4.17;;;;;;;;;;5051349;28;20403;-45
2022/10/03 10:03:02;;;;;;;14.60;5.03;;;;;;;;;;5051579;28;20398;-45
2022/10/03 10:05:34;;;;;;;14.60;5.43;;;;;;;;;;5050987;28;20471;-45
2022/10/03 10:08:29;;;;;;;13.87;4.40;;;;;;;;;;5050917;28;21532;-45
2022/10/03 10:10:55;;;;;;;13.37;5.27;;;;;;;;;;5050557;28;20408;-45
2022/10/03 10:13:33;;;;;;;14.70;4.80;;;;;;;;;;5051147;28;20544;-46
2022/10/03 10:16:12;;;;;;;14.03;3.90;;;;;;;;;;5050167;28;20416;-45
2022/10/03 10:18:58;;;;;;;14.37;3.80;;;;;;;;;;5049457;28;20433;-45
2022/10/03 10:21:33;;;;;;;12.13;2.93;;;;;;;;;;5049361;28;20455;-45
2022/10/03 10:24:14;;;;;;;10.23;4.50;;;;;;;;;;5050674;28;20408;-45
2022/10/03 10:26:40;;;;;;;6.50;2.77;;;;;;;;;;5050821;28;20440;-45
2022/10/03 10:29:21;;;;;;;10.13;3.40;;;;;;;;;;5050693;28;20620;-45
2022/10/03 10:31:53;;;;;;;3.10;1.90;;;;;;;;;;5051289;28;20447;-45
2022/10/03 10:34:38;;;;;;;9.33;3.37;;;;;;;;;;5052464;28;20551;-45
2022/10/03 10:37:10;;;;;;;7.47;2.53;;;;;;;;;;5054537;28;20924;-45
2022/10/03 10:39:54;;;;;;;4.03;2.07;;;;;;;;;;5054560;28;20427;-45
2022/10/03 10:42:29;;;;;;;11.43;2.63;;;;;;;;;;5055021;28;20742;-45
2022/10/03 10:45:13;;;;;;;7.43;2.67;;;;;;;;;;5054779;28;20503;-45
2022/10/03 10:47:39;;;;;;;9.73;2.57;;;;;;;;;;5054664;28;20421;-46
2022/10/03 10:50:24;;;;;;;9.53;2.07;;;;;;;;;;5054749;28;20385;-45
2022/10/03 10:52:50;;;;;;;6.90;1.80;;;;;;;;;;5054719;28;20863;-45
2022/10/03 10:55:34;;;;;;;3.57;1.87;;;;;;;;;;5054342;28;20394;-46
2022/10/03 10:58:00;;;;;;;2.47;2.00;;;;;;;;;;5054074;28;20461;-45
2022/10/03 11:00:47;;;;;;;4.70;1.60;;;;;;;;;;5054412;28;20428;-45
2022/10/03 11:03:32;;;;;;;6.40;2.70;;;;;;;;;;5054441;28;20444;-45
2022/10/03 11:06:18;;;;;;;5.50;2.77;;;;;;;;;;5053830;28;20979;-45
2022/10/03 11:08:53;;;;;;;4.30;2.17;;;;;;;;;;5053849;28;20445;-45
2022/10/03 11:11:22;;;;;;;4.73;2.30;;;;;;;;;;5054492;28;20900;-45
2022/10/03 11:13:58;;;;;;;10.67;2.90;;;;;;;;;;5054152;28;20539;-46
2022/10/03 11:16:41;;;;;;;3.73;1.70;;;;;;;;;;5053640;28;20761;-45
2022/10/03 11:19:13;;;;;;;4.60;2.10;;;;;;;;;;5053968;28;20429;-45
2022/10/03 11:22:04;;;;;;;8.40;1.77;;;;;;;;;;5054321;28;20479;-45
2022/10/03 11:24:48;;;;;;;9.30;2.27;;;;;;;;;;5053967;28;20488;-45
2022/10/03 11:27:31;;;;;;;3.93;1.60;;;;;;;;;;5053411;28;20451;-45
2022/10/03 11:30:05;;;;;;;9.70;1.80;;;;;;;;;;5053679;28;20903;-46
2022/10/03 11:32:42;;;;;;;5.30;2.20;;;;;;;;;;5053848;28;20970;-46
2022/10/03 11:35:21;;;;;;;5.60;2.10;;;;;;;;;;5053217;28;20901;-46
2022/10/03 11:37:50;;;;;;;5.70;2.00;;;;;;;;;;5053971;28;20413;-45
2022/10/03 11:40:27;;;;;;;3.23;2.20;;;;;;;;;;5053432;28;20472;-46
2022/10/03 11:43:03;;;;;;;8.03;2.50;;;;;;;;;;5053865;28;20486;-45
2022/10/03 11:45:35;;;;;;;4.30;2.10;;;;;;;;;;5053124;28;20440;-45
2022/10/03 11:48:11;;;;;;;4.13;2.00;;;;;;;;;;5053839;28;20432;-45
2022/10/03 11:50:53;;;;;;;5.20;2.20;;;;;;;;;;5052873;28;20758;-45
2022/10/03 11:53:25;;;;;;;5.90;2.30;;;;;;;;;;5052913;28;20484;-45
2022/10/03 11:55:54;;;;;;;8.70;2.47;;;;;;;;;;5053076;28;20417;-45
2022/10/03 11:58:41;;;;;;;9.70;1.80;;;;;;;;;;5051456;28;20520;-46
2022/10/03 12:01:06;;;;;;;6.10;2.57;;;;;;;;;;5049231;28;20408;-45
2022/10/03 12:03:36;;;;;;;5.37;2.30;;;;;;;;;;5053398;28;20644;-45
2022/10/03 12:09:14;;;;;;;5.37;1.80;;;;;;;;;;5052789;28;20513;-45
2022/10/03 12:11:40;;;;;;;5.33;1.63;;;;;;;;;;5053299;28;20400;-44
2022/10/03 12:14:09;;;;;;;3.23;2.10;;;;;;;;;;5053117;28;20459;-45
2022/10/03 12:16:52;;;;;;;4.50;2.07;;;;;;;;;;5052988;28;20469;-45
2022/10/03 12:19:29;;;;;;;7.80;2.50;;;;;;;;;;5052840;28;20413;-45
2022/10/03 12:21:59;;;;;;;4.73;1.83;;;;;;;;;;5053112;28;20489;-46
2022/10/03 12:24:28;;;;;;;7.53;2.60;;;;;;;;;;5052908;28;20416;-45
2022/10/03 12:26:58;;;;;;;6.60;1.90;;;;;;;;;;5052341;28;20408;-45
2022/10/03 12:29:25;;;;;;;6.10;2.37;;;;;;;;;;5052239;28;20410;-45
2022/10/03 12:31:57;;;;;;;2.97;2.20;;;;;;;;;;5053085;28;20485;-45
2022/10/03 12:34:36;;;;;;;7.30;2.13;;;;;;;;;;5052548;28;21091;-45
2022/10/03 12:37:15;;;;;;;5.70;2.03;;;;;;;;;;5052329;28;20756;-44
2022/10/03 12:40:00;;;;;;;5.90;1.90;;;;;;;;;;5052353;28;20411;-45
2022/10/03 12:42:44;;;;;;;3.60;2.10;;;;;;;;;;5052609;28;20915;-45
2022/10/03 12:45:29;;;;;;;5.57;1.90;;;;;;;;;;5052030;28;20758;-45
2022/10/03 12:48:15;;;;;;;6.00;2.37;;;;;;;;;;5052551;28;20501;-46
2022/10/03 12:51:01;;;;;;;8.03;2.10;;;;;;;;;;5051931;28;20408;-45
2022/10/03 12:54:03;;;;;;;4.13;1.87;;;;;;;;;;5052646;28;20564;-45
2022/10/03 12:56:49;;;;;;;3.80;2.10;;;;;;;;;;5028126;28;20409;-45
2022/10/03 12:59:17;;;;;;;6.43;2.00;;;;;;;;;;5050371;28;20424;-45
2022/10/03 13:02:01;;;;;;;5.47;2.20;;;;;;;;;;5049898;28;20827;-45
2022/10/03 13:04:46;;;;;;;3.27;2.03;;;;;;;;;;5051976;28;20431;-44
2022/10/03 13:07:27;;;;;;;5.70;2.10;;;;;;;;;;5052073;28;20636;-45
2022/10/03 13:09:53;;;;;;;3.73;1.93;;;;;;;;;;5051810;28;20392;-45
2022/10/03 13:12:39;;;;;;;2.53;1.73;;;;;;;;;;5052070;28;20774;-45
2022/10/03 13:15:23;;;;;;;3.83;2.43;;;;;;;;;;5051694;28;20395;-45
2022/10/03 13:17:57;;;;;;;10.13;2.37;;;;;;;;;;5052030;28;20437;-45
2022/10/03 13:20:35;;;;;;;8.23;2.10;;;;;;;;;;5051489;28;20528;-45
2022/10/03 13:23:09;;;;;;;4.80;1.83;;;;;;;;;;5052165;28;20409;-45
2022/10/03 13:25:49;;;;;;;7.53;2.33;;;;;;;;;;5051247;28;20808;-45
2022/10/03 13:28:34;;;;;;;8.03;2.47;;;;;;;;;;5051513;28;20785;-45
2022/10/03 13:31:08;;;;;;;6.10;2.20;;;;;;;;;;5051312;28;20409;-44
2022/10/03 13:33:42;;;;;;;7.27;1.70;;;;;;;;;;5051669;28;20452;-45
2022/10/03 13:36:20;;;;;;;7.13;2.73;;;;;;;;;;5050714;28;20540;-45
2022/10/03 13:39:07;;;;;;;7.90;1.93;;;;;;;;;;5051664;28;20799;-45
2022/10/03 13:41:51;;;;;;;3.37;1.70;;;;;;;;;;5051554;28;20893;-45
2022/10/03 13:44:22;;;;;;;4.53;1.90;;;;;;;;;;5051365;28;20406;-45
2022/10/03 13:46:52;;;;;;;4.33;1.90;;;;;;;;;;5051324;28;20404;-45
2022/10/03 13:49:18;;;;;;;4.53;1.83;;;;;;;;;;5051332;28;20817;-45
2022/10/03 13:51:52;;;;;;;6.20;2.37;;;;;;;;;;5051502;28;20397;-45
2022/10/03 13:54:25;;;;;;;6.20;2.03;;;;;;;;;;5051341;28;20511;-45
2022/10/03 13:56:57;;;;;;;3.67;1.87;;;;;;;;;;5050712;28;20407;-45
2022/10/03 13:59:35;;;;;;;6.27;2.50;;;;;;;;;;5051181;28;20494;-45
2022/10/03 14:02:17;;;;;;;3.50;1.83;;;;;;;;;;5051388;28;20923;-44
2022/10/03 14:04:49;;;;;;;5.73;2.47;;;;;;;;;;5051223;28;20497;-45
2022/10/03 14:07:23;;;;;;;4.30;2.03;;;;;;;;;;5051404;28;20426;-44
2022/10/03 14:09:49;;;;;;;4.73;2.40;;;;;;;;;;5055628;28;20409;-45
2022/10/03 14:12:22;;;;;;;15.47;2.13;;;;;;;;;;5055542;28;20407;-44
2022/10/03 14:15:02;;;;;;;6.43;2.33;;;;;;;;;;5055525;28;20610;-45
2022/10/03 14:17:50;;;;;;;2.77;2.17;;;;;;;;;;5054391;28;20791;-45
2022/10/03 14:20:25;;;;;;;3.37;2.30;;;;;;;;;;5054176;28;20445;-45
2022/10/03 14:22:59;;;;;;;4.53;2.03;;;;;;;;;;5055150;28;20906;-45
2022/10/03 14:25:25;;;;;;;5.17;2.10;;;;;;;;;;5054869;28;20467;-45
2022/10/03 14:27:53;;;;;;;4.93;2.07;;;;;;;;;;5054895;28;20503;-45
2022/10/03 14:30:24;;;;;;;2.40;1.83;;;;;;;;;;5055364;28;20820;-45
2022/10/03 14:33:09;;;;;;;6.07;1.60;;;;;;;;;;5055155;28;20808;-45
2022/10/03 14:35:55;;;;;;;4.23;1.80;;;;;;;;;;5054650;28;20417;-44
2022/10/03 14:38:56;;;;;;;4.50;1.83;;;;;;;;;;5055035;28;20742;-45
2022/10/03 14:41:28;;;;;;;3.73;2.10;;;;;;;;;;5054920;28;20398;-45
2022/10/03 14:44:13;;;;;;;5.43;2.07;;;;;;;;;;5055066;28;20771;-46
2022/10/03 14:46:46;;;;;;;5.50;1.90;;;;;;;;;;5054667;28;20373;-45
2022/10/03 14:49:26;;;;;;;3.67;2.77;;;;;;;;;;5054684;28;20437;-45
2022/10/03 14:51:59;;;;;;;3.97;1.50;;;;;;;;;;5054625;28;20402;-45
2022/10/03 14:54:29;;;;;;;4.50;1.83;;;;;;;;;;5054842;28;20935;-44
2022/10/03 14:56:56;;;;;;;5.07;1.83;;;;;;;;;;5054247;28;20475;-45
2022/10/03 14:59:25;;;;;;;6.80;2.37;;;;;;;;;;5054303;28;20376;-45
2022/10/03 15:01:53;;;;;;;4.23;2.33;;;;;;;;;;5054579;28;20464;-45
2022/10/03 15:04:30;;;;;;;8.27;1.80;;;;;;;;;;5054610;28;20380;-45
2022/10/03 15:06:59;;;;;;;9.53;2.73;;;;;;;;;;5054122;28;20405;-45
2022/10/03 15:09:32;;;;;;;4.90;1.83;;;;;;;;;;5054463;28;20416;-44
2022/10/03 15:12:08;;;;;;;6.30;2.23;;;;;;;;;;5054338;28;20924;-45
2022/10/03 15:14:35;;;;;;;4.13;2.20;;;;;;;;;;5054351;28;20501;-45
2022/10/03 15:17:05;;;;;;;6.50;1.80;;;;;;;;;;5054126;28;20407;-45
2022/10/03 15:19:31;;;;;;;3.23;1.97;;;;;;;;;;5053464;28;20483;-46
2022/10/03 15:22:01;;;;;;;6.77;2.80;;;;;;;;;;5054336;28;20913;-45
2022/10/03 15:24:30;;;;;;;7.83;2.40;;;;;;;;;;5054074;28;20405;-44
2022/10/03 15:27:04;;;;;;;3.80;2.70;;;;;;;;;;5054071;28;20824;-45
2022/10/03 15:29:30;;;;;;;6.57;2.83;;;;;;;;;;5054044;28;20464;-45
2022/10/03 15:31:56;;;;;;;6.10;2.87;;;;;;;;;;5054192;28;20391;-45
2022/10/03 15:34:25;;;;;;;4.57;2.10;;;;;;;;;;5053730;28;20472;-45
2022/10/03 15:36:54;;;;;;;5.40;2.30;;;;;;;;;;5054143;28;20779;-42
2022/10/03 15:39:39;;;;;;;3.90;2.73;;;;;;;;;;5053975;28;20753;-47
2022/10/03 15:42:07;;;;;;;6.23;2.40;;;;;;;;;;5052930;28;20383;-43
2022/10/03 15:44:38;;;;;;;3.23;2.00;;;;;;;;;;5053316;28;20971;-42